sensor_id;sensor_type;location;lat;lon;timestamp;P1;durP1;ratioP1;P2;durP2;ratioP2
28455;SDS011;15682;56.742;38.866;2022-10-16T00:01:08;19.8;;;9.0;;
28455;SDS011;15682;56.742;38.866;2022-10-16T00:03:08;20.6;;;9.1;;
28455;SDS011;15682;56.742;38.866;2022-10-16T00:05:08;20.3;;;8.6;;
28455;SDS011;15682;56.742;38.866;2022-10-16T00:07:08;22.8;;;9.4;;
28455;SDS011;15682;56.742;38.866;2022-10-16T00:09:08;20.2;;;9.5;;
28455;SDS011;15682;56.742;38.866;2022-10-16T00:11:10;20.4;;;8.7;;
28455;SDS011;15682;56.742;38.866;2022-10-16T00:13:08;21.3;;;8.9;;
28455;SDS011;15682;56.742;38.866;2022-10-16T00:15:09;21.8;;;8.7;;
28455;SDS011;15682;56.742;38.866;2022-10-16T00:17:08;21.3;;;9.0;;
28455;SDS011;15682;56.742;38.866;2022-10-16T00:19:09;17.9;;;8.8;;
28455;SDS011;15682;56.742;38.866;2022-10-16T00:21:09;22.7;;;8.6;;
28455;SDS011;15682;56.742;38.866;2022-10-16T00:23:09;21.7;;;8.5;;
28455;SDS011;15682;56.742;38.866;2022-10-16T00:25:09;19.6;;;8.8;;
28455;SDS011;15682;56.742;38.866;2022-10-16T00:27:09;21.1;;;8.2;;
28455;SDS011;15682;56.742;38.866;2022-10-16T00:29:09;17.5;;;8.7;;
28455;SDS011;15682;56.742;38.866;2022-10-16T00:31:09;17.6;;;8.4;;
28455;SDS011;15682;56.742;38.866;2022-10-16T00:33:09;22.0;;;8.6;;
28455;SDS011;15682;56.742;38.866;2022-10-16T00:35:09;18.7;;;8.7;;
28455;SDS011;15682;56.742;38.866;2022-10-16T00:37:09;20.9;;;8.4;;
28455;SDS011;15682;56.742;38.866;2022-10-16T00:39:09;25.7;;;9.2;;
28455;SDS011;15682;56.742;38.866;2022-10-16T00:41:10;23.4;;;9.4;;
28455;SDS011;15682;56.742;38.866;2022-10-16T00:43:12;24.3;;;9.3;;
28455;SDS011;15682;56.742;38.866;2022-10-16T00:45:10;18.4;;;8.2;;
28455;SDS011;15682;56.742;38.866;2022-10-16T00:47:09;20.9;;;8.5;;
28455;SDS011;15682;56.742;38.866;2022-10-16T00:49:10;16.6;;;8.2;;
28455;SDS011;15682;56.742;38.866;2022-10-16T00:51:09;19.1;;;8.1;;
28455;SDS011;15682;56.742;38.866;2022-10-16T00:53:09;20.5;;;8.5;;
28455;SDS011;15682;56.742;38.866;2022-10-16T00:55:10;23.7;;;8.5;;
28455;SDS011;15682;56.742;38.866;2022-10-16T00:57:09;17.4;;;7.9;;
28455;SDS011;15682;56.742;38.866;2022-10-16T00:59:15;20.4;;;8.3;;
28455;SDS011;15682;56.742;38.866;2022-10-16T01:01:10;18.4;;;7.9;;
28455;SDS011;15682;56.742;38.866;2022-10-16T01:03:22;18.6;;;8.3;;
28455;SDS011;15682;56.742;38.866;2022-10-16T01:05:10;18.7;;;8.3;;
28455;SDS011;15682;56.742;38.866;2022-10-16T01:07:12;18.5;;;7.8;;
28455;SDS011;15682;56.742;38.866;2022-10-16T01:09:12;22.4;;;7.9;;
28455;SDS011;15682;56.742;38.866;2022-10-16T01:11:11;15.4;;;8.4;;
28455;SDS011;15682;56.742;38.866;2022-10-16T01:13:11;19.7;;;8.2;;
28455;SDS011;15682;56.742;38.866;2022-10-16T01:15:12;18.0;;;8.0;;
28455;SDS011;15682;56.742;38.866;2022-10-16T01:17:11;20.3;;;8.8;;
28455;SDS011;15682;56.742;38.866;2022-10-16T01:19:12;21.8;;;8.8;;
28455;SDS011;15682;56.742;38.866;2022-10-16T01:21:11;24.1;;;9.5;;
28455;SDS011;15682;56.742;38.866;2022-10-16T01:23:15;22.3;;;9.0;;
28455;SDS011;15682;56.742;38.866;2022-10-16T01:25:12;21.4;;;9.0;;
28455;SDS011;15682;56.742;38.866;2022-10-16T01:27:11;23.5;;;9.5;;
28455;SDS011;15682;56.742;38.866;2022-10-16T01:29:12;18.5;;;8.6;;
28455;SDS011;15682;56.742;38.866;2022-10-16T01:31:10;21.2;;;8.6;;
28455;SDS011;15682;56.742;38.866;2022-10-16T01:33:12;19.3;;;8.7;;
28455;SDS011;15682;56.742;38.866;2022-10-16T01:35:11;18.4;;;8.9;;
28455;SDS011;15682;56.742;38.866;2022-10-16T01:37:12;18.6;;;8.9;;
28455;SDS011;15682;56.742;38.866;2022-10-16T01:39:10;23.0;;;9.0;;
28455;SDS011;15682;56.742;38.866;2022-10-16T01:41:11;22.0;;;9.0;;
28455;SDS011;15682;56.742;38.866;2022-10-16T01:43:12;20.7;;;8.9;;
28455;SDS011;15682;56.742;38.866;2022-10-16T01:45:11;17.0;;;8.3;;
28455;SDS011;15682;56.742;38.866;2022-10-16T01:47:10;21.6;;;8.1;;
28455;SDS011;15682;56.742;38.866;2022-10-16T01:49:11;24.9;;;9.4;;
28455;SDS011;15682;56.742;38.866;2022-10-16T01:51:11;21.3;;;8.7;;
28455;SDS011;15682;56.742;38.866;2022-10-16T01:53:11;22.2;;;8.5;;
28455;SDS011;15682;56.742;38.866;2022-10-16T01:55:11;18.9;;;8.1;;
28455;SDS011;15682;56.742;38.866;2022-10-16T01:57:11;17.5;;;7.8;;
28455;SDS011;15682;56.742;38.866;2022-10-16T01:59:12;21.1;;;8.5;;
28455;SDS011;15682;56.742;38.866;2022-10-16T02:01:11;19.9;;;8.5;;
28455;SDS011;15682;56.742;38.866;2022-10-16T02:03:11;17.5;;;7.6;;
28455;SDS011;15682;56.742;38.866;2022-10-16T02:05:12;19.1;;;8.0;;
28455;SDS011;15682;56.742;38.866;2022-10-16T02:07:11;22.7;;;7.8;;
28455;SDS011;15682;56.742;38.866;2022-10-16T02:09:11;22.2;;;8.3;;
28455;SDS011;15682;56.742;38.866;2022-10-16T02:11:11;18.8;;;8.1;;
28455;SDS011;15682;56.742;38.866;2022-10-16T02:13:14;21.5;;;8.4;;
28455;SDS011;15682;56.742;38.866;2022-10-16T02:15:11;18.4;;;8.3;;
28455;SDS011;15682;56.742;38.866;2022-10-16T02:17:12;17.5;;;8.3;;
28455;SDS011;15682;56.742;38.866;2022-10-16T02:19:11;19.0;;;7.6;;
28455;SDS011;15682;56.742;38.866;2022-10-16T02:21:13;21.2;;;7.9;;
28455;SDS011;15682;56.742;38.866;2022-10-16T02:23:12;19.5;;;7.8;;
28455;SDS011;15682;56.742;38.866;2022-10-16T02:25:12;24.0;;;8.2;;
28455;SDS011;15682;56.742;38.866;2022-10-16T02:27:12;23.3;;;8.6;;
28455;SDS011;15682;56.742;38.866;2022-10-16T02:29:12;21.3;;;8.9;;
28455;SDS011;15682;56.742;38.866;2022-10-16T02:31:11;19.8;;;8.2;;
28455;SDS011;15682;56.742;38.866;2022-10-16T02:33:11;18.7;;;8.0;;
28455;SDS011;15682;56.742;38.866;2022-10-16T02:35:11;21.8;;;8.5;;
28455;SDS011;15682;56.742;38.866;2022-10-16T02:37:11;18.8;;;7.9;;
28455;SDS011;15682;56.742;38.866;2022-10-16T02:39:11;21.4;;;8.0;;
28455;SDS011;15682;56.742;38.866;2022-10-16T02:41:11;19.6;;;8.4;;
28455;SDS011;15682;56.742;38.866;2022-10-16T02:43:11;25.3;;;8.6;;
28455;SDS011;15682;56.742;38.866;2022-10-16T02:45:11;19.4;;;8.9;;
28455;SDS011;15682;56.742;38.866;2022-10-16T02:47:11;22.8;;;8.7;;
28455;SDS011;15682;56.742;38.866;2022-10-16T02:49:11;23.6;;;8.5;;
28455;SDS011;15682;56.742;38.866;2022-10-16T02:51:11;20.2;;;8.5;;
28455;SDS011;15682;56.742;38.866;2022-10-16T02:53:11;19.1;;;8.0;;
28455;SDS011;15682;56.742;38.866;2022-10-16T02:55:11;20.1;;;8.4;;
28455;SDS011;15682;56.742;38.866;2022-10-16T02:57:11;21.9;;;8.6;;
28455;SDS011;15682;56.742;38.866;2022-10-16T02:59:11;23.0;;;8.6;;
28455;SDS011;15682;56.742;38.866;2022-10-16T03:01:11;20.6;;;8.2;;
28455;SDS011;15682;56.742;38.866;2022-10-16T03:03:11;23.8;;;7.9;;
28455;SDS011;15682;56.742;38.866;2022-10-16T03:05:11;21.7;;;8.7;;
28455;SDS011;15682;56.742;38.866;2022-10-16T03:07:11;21.8;;;8.3;;
28455;SDS011;15682;56.742;38.866;2022-10-16T03:09:11;23.2;;;8.0;;
28455;SDS011;15682;56.742;38.866;2022-10-16T03:11:11;21.5;;;8.8;;
28455;SDS011;15682;56.742;38.866;2022-10-16T03:13:11;24.1;;;8.8;;
28455;SDS011;15682;56.742;38.866;2022-10-16T03:15:11;18.0;;;9.0;;
28455;SDS011;15682;56.742;38.866;2022-10-16T03:17:11;21.9;;;8.4;;
28455;SDS011;15682;56.742;38.866;2022-10-16T03:19:11;26.1;;;8.6;;
28455;SDS011;15682;56.742;38.866;2022-10-16T03:21:11;19.7;;;8.6;;
28455;SDS011;15682;56.742;38.866;2022-10-16T03:23:11;20.9;;;8.3;;
28455;SDS011;15682;56.742;38.866;2022-10-16T03:25:11;20.6;;;8.1;;
28455;SDS011;15682;56.742;38.866;2022-10-16T03:27:11;21.4;;;8.3;;
28455;SDS011;15682;56.742;38.866;2022-10-16T03:29:11;21.6;;;8.0;;
28455;SDS011;15682;56.742;38.866;2022-10-16T03:31:11;21.6;;;8.4;;
28455;SDS011;15682;56.742;38.866;2022-10-16T03:33:11;20.4;;;8.2;;
28455;SDS011;15682;56.742;38.866;2022-10-16T03:35:11;21.8;;;8.7;;
28455;SDS011;15682;56.742;38.866;2022-10-16T03:37:11;21.0;;;8.6;;
28455;SDS011;15682;56.742;38.866;2022-10-16T03:39:11;25.4;;;8.8;;
28455;SDS011;15682;56.742;38.866;2022-10-16T03:41:11;18.7;;;8.5;;
28455;SDS011;15682;56.742;38.866;2022-10-16T03:43:11;20.7;;;8.2;;
28455;SDS011;15682;56.742;38.866;2022-10-16T03:45:11;21.9;;;8.4;;
28455;SDS011;15682;56.742;38.866;2022-10-16T03:47:11;21.3;;;8.5;;
28455;SDS011;15682;56.742;38.866;2022-10-16T03:49:11;16.1;;;7.8;;
28455;SDS011;15682;56.742;38.866;2022-10-16T03:51:11;20.0;;;8.6;;
28455;SDS011;15682;56.742;38.866;2022-10-16T03:53:11;20.6;;;8.7;;
28455;SDS011;15682;56.742;38.866;2022-10-16T03:55:11;20.2;;;8.5;;
28455;SDS011;15682;56.742;38.866;2022-10-16T03:57:11;18.8;;;8.8;;
28455;SDS011;15682;56.742;38.866;2022-10-16T03:59:11;25.7;;;8.8;;
28455;SDS011;15682;56.742;38.866;2022-10-16T04:01:11;22.4;;;9.0;;
28455;SDS011;15682;56.742;38.866;2022-10-16T04:03:11;23.8;;;8.7;;
28455;SDS011;15682;56.742;38.866;2022-10-16T04:05:11;25.0;;;8.9;;
28455;SDS011;15682;56.742;38.866;2022-10-16T04:07:11;19.4;;;8.1;;
28455;SDS011;15682;56.742;38.866;2022-10-16T04:09:11;30.6;;;10.1;;
28455;SDS011;15682;56.742;38.866;2022-10-16T04:11:11;22.1;;;8.9;;
28455;SDS011;15682;56.742;38.866;2022-10-16T04:13:12;19.2;;;8.8;;
28455;SDS011;15682;56.742;38.866;2022-10-16T04:15:11;21.6;;;9.2;;
28455;SDS011;15682;56.742;38.866;2022-10-16T04:17:11;28.2;;;10.2;;
28455;SDS011;15682;56.742;38.866;2022-10-16T04:19:11;23.0;;;8.6;;
28455;SDS011;15682;56.742;38.866;2022-10-16T04:21:11;45.7;;;12.9;;
28455;SDS011;15682;56.742;38.866;2022-10-16T04:26:00;21.2;;;9.4;;
28455;SDS011;15682;56.742;38.866;2022-10-16T04:27:11;18.4;;;8.0;;
28455;SDS011;15682;56.742;38.866;2022-10-16T04:29:11;19.3;;;8.9;;
28455;SDS011;15682;56.742;38.866;2022-10-16T04:31:13;22.7;;;9.1;;
28455;SDS011;15682;56.742;38.866;2022-10-16T04:33:11;26.6;;;9.0;;
28455;SDS011;15682;56.742;38.866;2022-10-16T04:35:13;25.3;;;8.9;;
28455;SDS011;15682;56.742;38.866;2022-10-16T04:37:11;23.0;;;8.4;;
28455;SDS011;15682;56.742;38.866;2022-10-16T04:39:11;48.5;;;11.4;;
28455;SDS011;15682;56.742;38.866;2022-10-16T04:41:11;29.9;;;8.9;;
28455;SDS011;15682;56.742;38.866;2022-10-16T04:43:11;21.2;;;8.4;;
28455;SDS011;15682;56.742;38.866;2022-10-16T04:45:11;27.4;;;9.2;;
28455;SDS011;15682;56.742;38.866;2022-10-16T04:47:11;28.1;;;9.1;;
28455;SDS011;15682;56.742;38.866;2022-10-16T04:49:11;21.7;;;9.1;;
28455;SDS011;15682;56.742;38.866;2022-10-16T04:51:11;24.5;;;8.4;;
28455;SDS011;15682;56.742;38.866;2022-10-16T04:53:11;22.5;;;8.6;;
28455;SDS011;15682;56.742;38.866;2022-10-16T04:55:11;25.0;;;8.9;;
28455;SDS011;15682;56.742;38.866;2022-10-16T04:57:11;21.1;;;8.4;;
28455;SDS011;15682;56.742;38.866;2022-10-16T04:59:11;23.9;;;9.0;;
28455;SDS011;15682;56.742;38.866;2022-10-16T05:01:11;16.9;;;8.5;;
28455;SDS011;15682;56.742;38.866;2022-10-16T05:03:12;24.0;;;8.9;;
28455;SDS011;15682;56.742;38.866;2022-10-16T05:05:11;22.2;;;8.8;;
28455;SDS011;15682;56.742;38.866;2022-10-16T05:07:11;21.3;;;8.8;;
28455;SDS011;15682;56.742;38.866;2022-10-16T05:09:13;28.4;;;9.0;;
28455;SDS011;15682;56.742;38.866;2022-10-16T05:11:11;22.8;;;8.6;;
28455;SDS011;15682;56.742;38.866;2022-10-16T05:13:11;17.7;;;8.7;;
28455;SDS011;15682;56.742;38.866;2022-10-16T05:15:11;25.8;;;10.4;;
28455;SDS011;15682;56.742;38.866;2022-10-16T05:17:11;42.6;;;22.1;;
28455;SDS011;15682;56.742;38.866;2022-10-16T05:19:11;42.6;;;9.9;;
28455;SDS011;15682;56.742;38.866;2022-10-16T05:21:11;23.7;;;9.1;;
28455;SDS011;15682;56.742;38.866;2022-10-16T05:23:11;24.9;;;8.9;;
28455;SDS011;15682;56.742;38.866;2022-10-16T05:25:11;26.0;;;8.5;;
28455;SDS011;15682;56.742;38.866;2022-10-16T05:27:11;28.3;;;9.0;;
28455;SDS011;15682;56.742;38.866;2022-10-16T05:29:11;30.4;;;9.2;;
28455;SDS011;15682;56.742;38.866;2022-10-16T05:31:11;20.2;;;8.5;;
28455;SDS011;15682;56.742;38.866;2022-10-16T05:33:11;28.8;;;8.5;;
28455;SDS011;15682;56.742;38.866;2022-10-16T05:35:11;29.0;;;9.0;;
28455;SDS011;15682;56.742;38.866;2022-10-16T05:37:11;23.6;;;8.1;;
28455;SDS011;15682;56.742;38.866;2022-10-16T05:39:11;21.3;;;8.5;;
28455;SDS011;15682;56.742;38.866;2022-10-16T05:41:11;50.3;;;11.3;;
28455;SDS011;15682;56.742;38.866;2022-10-16T05:43:11;98.1;;;21.5;;
28455;SDS011;15682;56.742;38.866;2022-10-16T05:45:11;27.3;;;10.1;;
28455;SDS011;15682;56.742;38.866;2022-10-16T05:47:12;26.5;;;8.4;;
28455;SDS011;15682;56.742;38.866;2022-10-16T05:49:11;23.5;;;8.7;;
28455;SDS011;15682;56.742;38.866;2022-10-16T05:51:12;23.2;;;8.4;;
28455;SDS011;15682;56.742;38.866;2022-10-16T05:53:11;27.0;;;8.5;;
28455;SDS011;15682;56.742;38.866;2022-10-16T05:55:11;17.5;;;8.1;;
28455;SDS011;15682;56.742;38.866;2022-10-16T05:57:11;19.8;;;7.8;;
28455;SDS011;15682;56.742;38.866;2022-10-16T05:59:12;18.5;;;7.5;;
28455;SDS011;15682;56.742;38.866;2022-10-16T06:01:12;17.1;;;7.8;;
28455;SDS011;15682;56.742;38.866;2022-10-16T06:03:12;22.2;;;8.3;;
28455;SDS011;15682;56.742;38.866;2022-10-16T06:05:12;17.6;;;7.9;;
28455;SDS011;15682;56.742;38.866;2022-10-16T06:07:12;18.9;;;8.1;;
28455;SDS011;15682;56.742;38.866;2022-10-16T06:09:12;18.8;;;8.0;;
28455;SDS011;15682;56.742;38.866;2022-10-16T06:11:12;22.7;;;8.2;;
28455;SDS011;15682;56.742;38.866;2022-10-16T06:13:12;16.4;;;7.7;;
28455;SDS011;15682;56.742;38.866;2022-10-16T06:15:12;19.3;;;8.6;;
28455;SDS011;15682;56.742;38.866;2022-10-16T06:17:12;16.3;;;7.5;;
28455;SDS011;15682;56.742;38.866;2022-10-16T06:19:12;17.5;;;7.2;;
28455;SDS011;15682;56.742;38.866;2022-10-16T06:21:14;14.0;;;6.4;;
28455;SDS011;15682;56.742;38.866;2022-10-16T06:23:12;18.3;;;6.6;;
28455;SDS011;15682;56.742;38.866;2022-10-16T06:25:12;16.2;;;6.2;;
28455;SDS011;15682;56.742;38.866;2022-10-16T06:27:12;14.2;;;6.4;;
28455;SDS011;15682;56.742;38.866;2022-10-16T06:29:12;15.5;;;5.9;;
28455;SDS011;15682;56.742;38.866;2022-10-16T06:31:12;16.5;;;6.2;;
28455;SDS011;15682;56.742;38.866;2022-10-16T06:33:12;16.5;;;6.1;;
28455;SDS011;15682;56.742;38.866;2022-10-16T06:35:12;16.7;;;6.7;;
28455;SDS011;15682;56.742;38.866;2022-10-16T06:37:12;16.5;;;6.3;;
28455;SDS011;15682;56.742;38.866;2022-10-16T06:39:13;20.3;;;6.2;;
28455;SDS011;15682;56.742;38.866;2022-10-16T06:41:13;11.0;;;5.8;;
28455;SDS011;15682;56.742;38.866;2022-10-16T06:43:12;14.5;;;6.1;;
28455;SDS011;15682;56.742;38.866;2022-10-16T06:45:12;19.3;;;6.4;;
28455;SDS011;15682;56.742;38.866;2022-10-16T06:47:12;16.1;;;6.0;;
28455;SDS011;15682;56.742;38.866;2022-10-16T06:49:13;13.2;;;5.8;;
28455;SDS011;15682;56.742;38.866;2022-10-16T06:51:13;17.6;;;6.3;;
28455;SDS011;15682;56.742;38.866;2022-10-16T06:53:13;19.5;;;5.8;;
28455;SDS011;15682;56.742;38.866;2022-10-16T06:55:13;12.1;;;5.6;;
28455;SDS011;15682;56.742;38.866;2022-10-16T06:57:13;13.4;;;5.1;;
28455;SDS011;15682;56.742;38.866;2022-10-16T06:59:13;11.2;;;5.4;;
28455;SDS011;15682;56.742;38.866;2022-10-16T07:01:13;13.7;;;5.1;;
28455;SDS011;15682;56.742;38.866;2022-10-16T07:03:13;12.8;;;5.4;;
28455;SDS011;15682;56.742;38.866;2022-10-16T07:05:13;16.5;;;5.1;;
28455;SDS011;15682;56.742;38.866;2022-10-16T07:07:13;16.4;;;5.5;;
28455;SDS011;15682;56.742;38.866;2022-10-16T07:09:13;9.6;;;4.9;;
28455;SDS011;15682;56.742;38.866;2022-10-16T07:11:14;11.9;;;4.7;;
28455;SDS011;15682;56.742;38.866;2022-10-16T07:13:13;12.2;;;5.3;;
28455;SDS011;15682;56.742;38.866;2022-10-16T07:15:14;18.1;;;4.6;;
28455;SDS011;15682;56.742;38.866;2022-10-16T07:17:14;14.5;;;5.0;;
28455;SDS011;15682;56.742;38.866;2022-10-16T07:19:14;26.5;;;6.4;;
28455;SDS011;15682;56.742;38.866;2022-10-16T07:21:14;16.4;;;5.3;;
28455;SDS011;15682;56.742;38.866;2022-10-16T07:23:14;9.8;;;4.4;;
28455;SDS011;15682;56.742;38.866;2022-10-16T07:25:14;13.6;;;4.9;;
28455;SDS011;15682;56.742;38.866;2022-10-16T07:27:14;16.8;;;4.9;;
28455;SDS011;15682;56.742;38.866;2022-10-16T07:29:15;21.1;;;5.0;;
28455;SDS011;15682;56.742;38.866;2022-10-16T07:31:15;13.9;;;5.1;;
28455;SDS011;15682;56.742;38.866;2022-10-16T07:33:14;10.9;;;4.9;;
28455;SDS011;15682;56.742;38.866;2022-10-16T07:35:15;15.9;;;4.7;;
28455;SDS011;15682;56.742;38.866;2022-10-16T07:37:15;11.7;;;4.6;;
28455;SDS011;15682;56.742;38.866;2022-10-16T07:39:15;11.5;;;4.7;;
28455;SDS011;15682;56.742;38.866;2022-10-16T07:41:16;15.6;;;4.8;;
28455;SDS011;15682;56.742;38.866;2022-10-16T07:43:15;10.9;;;4.2;;
28455;SDS011;15682;56.742;38.866;2022-10-16T07:45:15;14.3;;;4.4;;
28455;SDS011;15682;56.742;38.866;2022-10-16T07:47:15;14.1;;;4.5;;
28455;SDS011;15682;56.742;38.866;2022-10-16T07:49:15;9.2;;;4.0;;
28455;SDS011;15682;56.742;38.866;2022-10-16T07:51:16;13.0;;;4.3;;
28455;SDS011;15682;56.742;38.866;2022-10-16T07:53:16;12.5;;;4.3;;
28455;SDS011;15682;56.742;38.866;2022-10-16T07:55:16;22.7;;;4.7;;
28455;SDS011;15682;56.742;38.866;2022-10-16T07:57:16;9.3;;;4.1;;
28455;SDS011;15682;56.742;38.866;2022-10-16T07:59:16;12.6;;;4.2;;
28455;SDS011;15682;56.742;38.866;2022-10-16T08:01:17;13.3;;;3.7;;
28455;SDS011;15682;56.742;38.866;2022-10-16T08:03:16;16.6;;;3.6;;
28455;SDS011;15682;56.742;38.866;2022-10-16T08:05:16;18.6;;;4.2;;
28455;SDS011;15682;56.742;38.866;2022-10-16T08:07:17;10.1;;;4.2;;
28455;SDS011;15682;56.742;38.866;2022-10-16T08:09:17;11.2;;;3.5;;
28455;SDS011;15682;56.742;38.866;2022-10-16T08:11:17;10.6;;;4.0;;
28455;SDS011;15682;56.742;38.866;2022-10-16T08:13:17;15.6;;;4.3;;
28455;SDS011;15682;56.742;38.866;2022-10-16T08:15:17;16.1;;;3.8;;
28455;SDS011;15682;56.742;38.866;2022-10-16T08:17:17;10.4;;;3.8;;
28455;SDS011;15682;56.742;38.866;2022-10-16T08:19:17;14.4;;;4.1;;
28455;SDS011;15682;56.742;38.866;2022-10-16T08:21:19;14.1;;;3.9;;
28455;SDS011;15682;56.742;38.866;2022-10-16T08:23:18;15.3;;;4.0;;
28455;SDS011;15682;56.742;38.866;2022-10-16T08:25:18;14.3;;;4.1;;
28455;SDS011;15682;56.742;38.866;2022-10-16T08:27:18;10.7;;;4.0;;
28455;SDS011;15682;56.742;38.866;2022-10-16T08:29:18;13.6;;;4.1;;
28455;SDS011;15682;56.742;38.866;2022-10-16T08:31:19;12.2;;;4.1;;
28455;SDS011;15682;56.742;38.866;2022-10-16T08:33:19;13.6;;;3.7;;
28455;SDS011;15682;56.742;38.866;2022-10-16T08:35:18;17.0;;;4.5;;
28455;SDS011;15682;56.742;38.866;2022-10-16T08:37:19;13.6;;;3.8;;
28455;SDS011;15682;56.742;38.866;2022-10-16T08:39:19;14.9;;;3.6;;
28455;SDS011;15682;56.742;38.866;2022-10-16T08:41:22;9.9;;;3.9;;
28455;SDS011;15682;56.742;38.866;2022-10-16T08:43:23;14.4;;;3.5;;
28455;SDS011;15682;56.742;38.866;2022-10-16T08:45:21;9.6;;;3.6;;
28455;SDS011;15682;56.742;38.866;2022-10-16T08:47:20;9.8;;;3.5;;
28455;SDS011;15682;56.742;38.866;2022-10-16T08:49:20;14.5;;;3.2;;
28455;SDS011;15682;56.742;38.866;2022-10-16T08:51:20;9.8;;;3.4;;
28455;SDS011;15682;56.742;38.866;2022-10-16T08:53:22;13.0;;;3.6;;
28455;SDS011;15682;56.742;38.866;2022-10-16T08:55:27;8.9;;;3.4;;
28455;SDS011;15682;56.742;38.866;2022-10-16T08:57:21;10.9;;;3.3;;
28455;SDS011;15682;56.742;38.866;2022-10-16T08:59:20;8.1;;;3.4;;
28455;SDS011;15682;56.742;38.866;2022-10-16T09:01:21;9.3;;;3.6;;
28455;SDS011;15682;56.742;38.866;2022-10-16T09:03:23;6.8;;;3.3;;
28455;SDS011;15682;56.742;38.866;2022-10-16T09:05:22;12.8;;;3.2;;
28455;SDS011;15682;56.742;38.866;2022-10-16T09:07:22;11.1;;;3.6;;
28455;SDS011;15682;56.742;38.866;2022-10-16T09:11:23;9.2;;;3.6;;
28455;SDS011;15682;56.742;38.866;2022-10-16T09:13:23;14.2;;;3.3;;
28455;SDS011;15682;56.742;38.866;2022-10-16T09:15:24;14.0;;;3.6;;
28455;SDS011;15682;56.742;38.866;2022-10-16T09:17:25;7.4;;;3.2;;
28455;SDS011;15682;56.742;38.866;2022-10-16T09:19:23;17.0;;;3.9;;
28455;SDS011;15682;56.742;38.866;2022-10-16T09:21:23;9.9;;;3.8;;
28455;SDS011;15682;56.742;38.866;2022-10-16T09:23:24;10.9;;;3.3;;
28455;SDS011;15682;56.742;38.866;2022-10-16T09:25:22;6.9;;;3.2;;
28455;SDS011;15682;56.742;38.866;2022-10-16T09:27:22;13.3;;;3.4;;
28455;SDS011;15682;56.742;38.866;2022-10-16T09:29:23;8.9;;;3.3;;
28455;SDS011;15682;56.742;38.866;2022-10-16T09:31:23;11.2;;;3.4;;
28455;SDS011;15682;56.742;38.866;2022-10-16T09:33:24;12.3;;;3.7;;
28455;SDS011;15682;56.742;38.866;2022-10-16T09:35:25;13.9;;;3.6;;
28455;SDS011;15682;56.742;38.866;2022-10-16T09:37:23;10.4;;;3.4;;
28455;SDS011;15682;56.742;38.866;2022-10-16T09:39:23;12.8;;;3.1;;
28455;SDS011;15682;56.742;38.866;2022-10-16T09:41:24;12.2;;;3.5;;
28455;SDS011;15682;56.742;38.866;2022-10-16T09:43:24;7.9;;;3.2;;
28455;SDS011;15682;56.742;38.866;2022-10-16T09:45:24;13.1;;;3.4;;
28455;SDS011;15682;56.742;38.866;2022-10-16T09:47:25;11.4;;;3.1;;
28455;SDS011;15682;56.742;38.866;2022-10-16T09:49:25;10.6;;;2.8;;
28455;SDS011;15682;56.742;38.866;2022-10-16T09:51:25;12.9;;;3.2;;
28455;SDS011;15682;56.742;38.866;2022-10-16T09:53:25;8.5;;;2.8;;
28455;SDS011;15682;56.742;38.866;2022-10-16T09:55:25;12.4;;;2.6;;
28455;SDS011;15682;56.742;38.866;2022-10-16T09:57:25;12.3;;;3.0;;
28455;SDS011;15682;56.742;38.866;2022-10-16T09:59:25;13.4;;;3.3;;
28455;SDS011;15682;56.742;38.866;2022-10-16T10:01:27;12.9;;;2.9;;
28455;SDS011;15682;56.742;38.866;2022-10-16T10:03:34;17.9;;;3.6;;
28455;SDS011;15682;56.742;38.866;2022-10-16T10:05:26;10.9;;;3.1;;
28455;SDS011;15682;56.742;38.866;2022-10-16T10:07:26;16.4;;;3.9;;
28455;SDS011;15682;56.742;38.866;2022-10-16T10:09:26;16.4;;;3.3;;
28455;SDS011;15682;56.742;38.866;2022-10-16T10:13:26;11.0;;;3.3;;
28455;SDS011;15682;56.742;38.866;2022-10-16T10:15:27;8.9;;;3.2;;
28455;SDS011;15682;56.742;38.866;2022-10-16T10:17:27;9.6;;;3.2;;
28455;SDS011;15682;56.742;38.866;2022-10-16T10:19:27;9.7;;;3.4;;
28455;SDS011;15682;56.742;38.866;2022-10-16T10:21:27;7.9;;;3.1;;
28455;SDS011;15682;56.742;38.866;2022-10-16T10:23:28;9.5;;;3.4;;
28455;SDS011;15682;56.742;38.866;2022-10-16T10:25:34;10.4;;;3.7;;
28455;SDS011;15682;56.742;38.866;2022-10-16T10:27:31;11.4;;;3.2;;
28455;SDS011;15682;56.742;38.866;2022-10-16T10:29:31;12.0;;;3.1;;
28455;SDS011;15682;56.742;38.866;2022-10-16T10:31:29;21.0;;;3.7;;
28455;SDS011;15682;56.742;38.866;2022-10-16T10:33:30;16.4;;;3.6;;
28455;SDS011;15682;56.742;38.866;2022-10-16T10:35:29;13.3;;;3.6;;
28455;SDS011;15682;56.742;38.866;2022-10-16T10:37:33;10.1;;;3.6;;
28455;SDS011;15682;56.742;38.866;2022-10-16T10:39:30;16.3;;;3.9;;
28455;SDS011;15682;56.742;38.866;2022-10-16T10:41:41;9.1;;;3.4;;
28455;SDS011;15682;56.742;38.866;2022-10-16T10:43:32;6.8;;;3.0;;
28455;SDS011;15682;56.742;38.866;2022-10-16T10:45:33;12.5;;;4.3;;
28455;SDS011;15682;56.742;38.866;2022-10-16T10:47:31;13.1;;;5.4;;
28455;SDS011;15682;56.742;38.866;2022-10-16T10:49:33;18.6;;;3.7;;
28455;SDS011;15682;56.742;38.866;2022-10-16T10:51:31;17.2;;;4.6;;
28455;SDS011;15682;56.742;38.866;2022-10-16T10:53:33;16.2;;;4.2;;
28455;SDS011;15682;56.742;38.866;2022-10-16T10:55:33;10.2;;;3.7;;
28455;SDS011;15682;56.742;38.866;2022-10-16T10:57:32;50.0;;;5.0;;
28455;SDS011;15682;56.742;38.866;2022-10-16T10:59:32;16.4;;;4.5;;
28455;SDS011;15682;56.742;38.866;2022-10-16T11:01:32;19.1;;;6.1;;
28455;SDS011;15682;56.742;38.866;2022-10-16T11:03:34;15.8;;;5.3;;
28455;SDS011;15682;56.742;38.866;2022-10-16T11:05:35;15.2;;;4.2;;
28455;SDS011;15682;56.742;38.866;2022-10-16T11:07:32;15.3;;;4.1;;
28455;SDS011;15682;56.742;38.866;2022-10-16T11:09:32;10.5;;;3.9;;
28455;SDS011;15682;56.742;38.866;2022-10-16T11:11:32;11.7;;;3.9;;
28455;SDS011;15682;56.742;38.866;2022-10-16T11:13:33;12.9;;;3.8;;
28455;SDS011;15682;56.742;38.866;2022-10-16T11:15:32;8.8;;;3.8;;
28455;SDS011;15682;56.742;38.866;2022-10-16T11:17:33;10.0;;;3.7;;
28455;SDS011;15682;56.742;38.866;2022-10-16T11:19:34;12.5;;;4.1;;
28455;SDS011;15682;56.742;38.866;2022-10-16T11:21:35;15.6;;;4.0;;
28455;SDS011;15682;56.742;38.866;2022-10-16T11:23:34;12.8;;;4.2;;
28455;SDS011;15682;56.742;38.866;2022-10-16T11:25:32;14.6;;;4.7;;
28455;SDS011;15682;56.742;38.866;2022-10-16T11:27:35;13.2;;;4.0;;
28455;SDS011;15682;56.742;38.866;2022-10-16T11:29:33;12.1;;;3.8;;
28455;SDS011;15682;56.742;38.866;2022-10-16T11:31:34;13.2;;;4.1;;
28455;SDS011;15682;56.742;38.866;2022-10-16T11:33:36;15.1;;;4.6;;
28455;SDS011;15682;56.742;38.866;2022-10-16T11:35:37;15.6;;;4.4;;
28455;SDS011;15682;56.742;38.866;2022-10-16T11:37:33;14.8;;;4.7;;
28455;SDS011;15682;56.742;38.866;2022-10-16T11:39:33;26.5;;;5.2;;
28455;SDS011;15682;56.742;38.866;2022-10-16T11:41:34;14.8;;;4.8;;
28455;SDS011;15682;56.742;38.866;2022-10-16T11:43:35;15.3;;;5.5;;
28455;SDS011;15682;56.742;38.866;2022-10-16T11:45:34;15.4;;;5.4;;
28455;SDS011;15682;56.742;38.866;2022-10-16T11:47:35;12.6;;;4.4;;
28455;SDS011;15682;56.742;38.866;2022-10-16T11:49:34;12.5;;;4.6;;
28455;SDS011;15682;56.742;38.866;2022-10-16T11:51:36;15.2;;;4.1;;
28455;SDS011;15682;56.742;38.866;2022-10-16T11:53:38;10.6;;;4.0;;
28455;SDS011;15682;56.742;38.866;2022-10-16T11:55:35;11.0;;;4.4;;
28455;SDS011;15682;56.742;38.866;2022-10-16T11:57:38;15.6;;;4.8;;
28455;SDS011;15682;56.742;38.866;2022-10-16T11:59:36;13.7;;;5.0;;
28455;SDS011;15682;56.742;38.866;2022-10-16T12:01:37;15.2;;;5.2;;
28455;SDS011;15682;56.742;38.866;2022-10-16T12:03:36;13.8;;;5.1;;
28455;SDS011;15682;56.742;38.866;2022-10-16T12:05:39;16.9;;;5.7;;
28455;SDS011;15682;56.742;38.866;2022-10-16T12:07:36;16.3;;;5.4;;
28455;SDS011;15682;56.742;38.866;2022-10-16T12:09:36;14.2;;;5.4;;